createdAt,value
2019-04-26T00:01:18.844Z,99597.18
2019-04-26T00:03:48.591Z,99594.10
2019-04-26T00:06:18.651Z,99598.75
2019-04-26T00:08:52.550Z,99609.53
2019-04-26T00:11:28.591Z,99619.27
2019-04-26T00:14:27.797Z,99613.13
2019-04-26T00:17:03.215Z,99607.95
2019-04-26T00:19:32.597Z,99606.27
2019-04-26T00:22:02.030Z,99602.86
2019-04-26T00:24:31.318Z,99598.57
2019-04-26T00:27:00.458Z,99600.95
2019-04-26T00:29:29.578Z,99598.95
2019-04-26T00:31:58.725Z,99605.39
2019-04-26T00:34:27.930Z,99596.13
2019-04-26T00:36:57.044Z,99601.56
2019-04-26T00:39:26.184Z,99598.20
2019-04-26T00:41:55.622Z,99600.20
2019-04-26T00:44:24.762Z,99607.55
2019-04-26T00:46:56.679Z,99617.51
2019-04-26T00:49:27.653Z,99617.68
2019-04-26T00:51:56.973Z,99613.88
2019-04-26T00:54:27.294Z,99605.92
2019-04-26T00:56:56.847Z,99597.58
2019-04-26T00:59:26.366Z,99598.97
2019-04-26T01:02:00.748Z,99590.63
2019-04-26T01:04:29.840Z,99593.11
2019-04-26T01:06:59.757Z,99599.66
2019-04-26T01:09:28.880Z,99599.58
2019-04-26T01:11:58.074Z,99592.77
2019-04-26T01:14:27.205Z,99579.58
2019-04-26T01:16:56.290Z,99571.34
2019-04-26T01:19:26.546Z,99565.78
2019-04-26T01:22:00.304Z,99566.54
2019-04-26T01:24:32.312Z,99557.91
2019-04-26T01:27:04.354Z,99548.76
2019-04-26T01:29:37.536Z,99538.17
2019-04-26T01:32:10.788Z,99540.42
2019-04-26T01:34:41.400Z,99527.73
2019-04-26T01:37:11.046Z,99531.88
2019-04-26T01:39:45.915Z,99533.97
2019-04-26T01:42:37.921Z,99552.92
2019-04-26T01:45:24.246Z,99562.18
2019-04-26T01:47:56.318Z,99568.02
2019-04-26T01:50:27.833Z,99572.33
2019-04-26T01:52:58.242Z,99582.09
2019-04-26T01:55:31.221Z,99590.56
2019-04-26T01:58:03.715Z,99595.09
2019-04-26T02:00:47.850Z,99603.62
2019-04-26T02:03:21.498Z,99603.25
2019-04-26T02:05:52.377Z,99604.29
2019-04-26T02:08:21.934Z,99604.84
2019-04-26T02:10:52.465Z,99601.09
2019-04-26T02:13:22.517Z,99605.05
2019-04-26T02:15:52.691Z,99600.01
2019-04-26T02:18:21.809Z,99593.34
2019-04-26T02:21:35.474Z,99590.81
2019-04-26T02:24:23.914Z,99598.45
2019-04-26T02:26:54.990Z,99592.44
2019-04-26T02:29:27.051Z,99607.36
2019-04-26T02:32:00.472Z,99627.50
2019-04-26T02:34:33.318Z,99626.45
2019-04-26T02:37:04.869Z,99637.63
2019-04-26T02:39:39.292Z,99634.95
2019-04-26T02:42:14.224Z,99639.80
2019-04-26T02:44:55.104Z,99640.63
2019-04-26T02:47:57.729Z,99654.75
2019-04-26T02:50:34.816Z,99651.34
2019-04-26T02:53:12.561Z,99648.39
2019-04-26T02:56:22.688Z,99640.97
2019-04-26T02:59:18.114Z,99642.34
2019-04-26T03:01:47.745Z,99634.95
2019-04-26T03:04:16.819Z,99634.08
2019-04-26T03:07:02.375Z,99622.56
2019-04-26T03:09:19.574Z,99618.70
2019-04-26T03:11:52.280Z,99617.00
2019-04-26T03:14:39.800Z,99624.65
2019-04-26T03:17:28.566Z,99623.05
2019-04-26T03:20:02.571Z,99625.37
2019-04-26T03:23:08.500Z,99630.73
2019-04-26T03:25:58.697Z,99635.73
2019-04-26T03:28:39.974Z,99638.98
2019-04-26T03:31:23.209Z,99634.55
2019-04-26T03:34:13.899Z,99648.63
2019-04-26T03:37:27.830Z,99663.27
2019-04-26T03:40:12.710Z,99657.91
2019-04-26T03:42:54.057Z,99668.54
2019-04-26T03:45:37.072Z,99669.06
2019-04-26T03:48:22.641Z,99660.84
2019-04-26T03:51:04.807Z,99649.47
2019-04-26T03:53:56.192Z,99642.39
2019-04-26T03:56:54.951Z,99631.39
2019-04-26T03:59:54.714Z,99631.17
2019-04-26T04:02:55.264Z,99653.62
2019-04-26T04:05:44.312Z,99670.39
2019-04-26T04:08:25.518Z,99672.58
2019-04-26T04:10:59.443Z,99664.60
2019-04-26T04:14:07.717Z,99663.27
2019-04-26T04:17:27.206Z,99643.89
2019-04-26T04:20:48.071Z,99635.08
2019-04-26T04:23:50.045Z,99643.35
2019-04-26T04:26:25.979Z,99689.63
2019-04-26T04:29:20.343Z,99710.06
2019-04-26T04:31:53.858Z,99707.73
2019-04-26T04:34:41.554Z,99716.33
2019-04-26T04:37:12.093Z,99720.61
2019-04-26T04:40:26.284Z,99721.64
2019-04-26T04:43:20.347Z,99701.78
2019-04-26T04:46:34.209Z,99686.63
2019-04-26T04:49:31.534Z,99680.08
2019-04-26T04:52:38.708Z,99664.35
2019-04-26T04:55:18.077Z,99664.06
2019-04-26T04:58:03.822Z,99664.19
2019-04-26T05:01:13.914Z,99676.76
2019-04-26T05:04:01.184Z,99694.42
2019-04-26T05:07:08.708Z,99712.75
2019-04-26T05:09:50.332Z,99710.81
2019-04-26T05:12:31.290Z,99708.91
2019-04-26T05:15:48.464Z,99726.45
2019-04-26T05:18:54.816Z,99730.58
2019-04-26T05:22:17.014Z,99727.93
2019-04-26T05:25:18.796Z,99711.64
2019-04-26T05:28:10.744Z,99726.56
2019-04-26T05:31:13.991Z,99727.69
2019-04-26T05:34:20.088Z,99716.92
2019-04-26T05:37:16.114Z,99737.98
2019-04-26T05:39:59.100Z,99757.36
2019-04-26T05:43:01.373Z,99762.59
2019-04-26T05:46:02.361Z,99771.39
2019-04-26T05:49:00.784Z,99746.47
2019-04-26T05:51:49.324Z,99749.87
2019-04-26T05:54:59.364Z,99752.27
2019-04-26T05:57:41.671Z,99732.02
2019-04-26T06:00:39.703Z,99734.87
2019-04-26T06:03:50.879Z,99752.34
2019-04-26T06:06:32.721Z,99755.33
2019-04-26T06:09:51.829Z,99760.47
2019-04-26T06:12:40.592Z,99753.31
2019-04-26T06:15:31.122Z,99750.48
2019-04-26T06:18:47.817Z,99754.11
2019-04-26T06:21:32.341Z,99758.00
2019-04-26T06:24:39.343Z,99758.50
2019-04-26T06:27:39.183Z,99762.22
2019-04-26T06:30:16.959Z,99754.80
2019-04-26T06:33:30.205Z,99757.17
2019-04-26T06:36:04.417Z,99758.91
2019-04-26T06:39:13.045Z,99769.27
2019-04-26T06:42:11.789Z,99780.30
2019-04-26T06:45:33.060Z,99772.25
2019-04-26T06:48:12.515Z,99773.58
2019-04-26T06:50:49.363Z,99767.84
2019-04-26T06:53:51.529Z,99773.58
2019-04-26T06:56:53.797Z,99780.51
2019-04-26T06:59:52.669Z,99804.78
2019-04-26T07:02:42.999Z,99822.48
2019-04-26T07:05:21.641Z,99820.14
2019-04-26T07:08:25.833Z,99804.56
2019-04-26T07:11:53.553Z,99784.45
2019-04-26T07:14:44.086Z,99802.59
2019-04-26T07:17:19.418Z,99800.23
2019-04-26T07:20:46.329Z,99802.43
2019-04-26T07:23:59.452Z,99785.19
2019-04-26T07:27:30.705Z,99789.96
2019-04-26T07:30:55.992Z,99803.21
2019-04-26T07:33:40.614Z,99811.14
2019-04-26T07:36:32.209Z,99813.70
2019-04-26T07:39:41.257Z,99803.21
2019-04-26T07:42:46.473Z,99813.84
2019-04-26T07:45:54.324Z,99815.36
2019-04-26T07:49:15.227Z,99835.91
2019-04-26T07:52:08.733Z,99826.37
2019-04-26T07:55:13.479Z,99829.77
2019-04-26T07:58:23.817Z,99825.65
2019-04-26T08:01:07.471Z,99818.08
2019-04-26T08:03:49.701Z,99815.14
2019-04-26T08:06:35.277Z,99811.61
2019-04-26T08:09:09.696Z,99829.45
2019-04-26T08:12:01.794Z,99827.30
2019-04-26T08:14:38.815Z,99832.75
2019-04-26T08:17:50.458Z,99821.28
2019-04-26T08:20:36.186Z,99821.15
2019-04-26T08:23:16.985Z,99825.37
2019-04-26T08:26:00.024Z,99848.95
2019-04-26T08:28:32.558Z,99861.09
2019-04-26T08:31:24.281Z,99871.11
2019-04-26T08:34:01.850Z,99863.44
2019-04-26T08:36:35.043Z,99869.03
2019-04-26T08:39:09.466Z,99869.81
2019-04-26T08:41:40.900Z,99875.73
2019-04-26T08:44:21.462Z,99880.45
2019-04-26T08:47:14.165Z,99879.02
2019-04-26T08:49:51.883Z,99885.63
2019-04-26T08:52:25.217Z,99887.47
2019-04-26T08:54:57.277Z,99883.66
2019-04-26T08:57:29.833Z,99886.51
2019-04-26T09:00:01.990Z,99878.30
2019-04-26T09:02:51.302Z,99874.04
2019-04-26T09:05:45.618Z,99883.31
2019-04-26T09:08:16.984Z,99881.15
2019-04-26T09:10:48.898Z,99889.55
2019-04-26T09:13:20.265Z,99891.15
2019-04-26T09:16:11.223Z,99900.73
2019-04-26T09:18:43.654Z,99901.84
2019-04-26T09:21:13.369Z,99906.78
2019-04-26T09:24:00.010Z,99911.77
2019-04-26T09:26:50.505Z,99913.34
2019-04-26T09:29:38.598Z,99917.16
2019-04-26T09:32:13.034Z,99908.03
2019-04-26T09:34:42.819Z,99910.23
2019-04-26T09:37:12.226Z,99906.09
2019-04-26T09:39:42.021Z,99912.73
2019-04-26T09:45:15.972Z,99912.55
2019-04-26T09:47:51.374Z,99915.16
2019-04-26T09:50:39.482Z,99910.95
2019-04-26T09:53:09.129Z,99907.77
2019-04-26T09:55:38.287Z,99914.08
2019-04-26T09:58:08.736Z,99931.91
2019-04-26T10:00:38.500Z,99938.06
2019-04-26T10:03:09.491Z,99947.95
2019-04-26T10:05:38.642Z,99946.66
2019-04-26T10:08:08.371Z,99946.85
2019-04-26T10:10:38.798Z,99952.84
2019-04-26T10:13:33.005Z,99950.41
2019-04-26T10:16:33.465Z,99956.80
2019-04-26T10:19:09.535Z,99954.73
2019-04-26T10:21:38.695Z,99953.50
2019-04-26T10:24:08.448Z,99957.23
2019-04-26T10:26:38.037Z,99953.78
2019-04-26T10:29:07.185Z,99951.57
2019-04-26T10:31:36.424Z,99963.16
2019-04-26T10:34:07.677Z,99969.03
2019-04-26T10:36:36.589Z,99974.95
2019-04-26T10:39:09.153Z,99966.28
2019-04-26T10:41:38.549Z,99978.39
2019-04-26T10:44:07.678Z,99975.86
2019-04-26T10:46:36.805Z,99972.74
2019-04-26T10:49:41.300Z,99978.06
2019-04-26T10:52:17.028Z,99980.27
2019-04-26T10:54:49.285Z,99978.52
2019-04-26T10:57:30.077Z,99983.52
2019-04-26T11:00:02.324Z,99977.87
2019-04-26T11:02:31.417Z,99981.91
2019-04-26T11:05:00.618Z,99985.95
2019-04-26T11:07:29.735Z,99981.20
2019-04-26T11:09:58.879Z,99995.93
2019-04-26T11:12:28.008Z,99997.15
2019-04-26T11:14:58.222Z,100002.43
2019-04-26T11:17:27.395Z,100002.63
2019-04-26T11:19:56.513Z,100005.25
2019-04-26T11:22:29.411Z,99953.38
2019-04-26T11:24:56.773Z,100002.09
2019-04-26T11:27:26.089Z,100006.50
2019-04-26T11:29:55.392Z,100003.42
2019-04-26T11:32:24.619Z,99902.70
2019-04-26T11:34:54.543Z,100003.76
2019-04-26T11:37:24.596Z,99997.94
2019-04-26T11:39:54.008Z,100002.80
2019-04-26T11:42:23.137Z,100003.59
2019-04-26T11:44:52.298Z,99997.52
2019-04-26T11:47:21.454Z,99995.82
2019-04-26T11:49:50.885Z,99989.67
2019-04-26T11:52:20.065Z,99986.59
2019-04-26T11:54:51.339Z,100004.01
2019-04-26T11:57:20.114Z,100010.77
2019-04-26T11:59:49.294Z,100018.45
2019-04-26T12:02:18.452Z,100009.77
2019-04-26T12:05:06.536Z,100016.65
2019-04-26T12:07:50.162Z,100015.85
2019-04-26T12:10:19.383Z,100025.84
2019-04-26T12:12:51.886Z,100029.00
2019-04-26T12:15:29.670Z,100030.33
2019-04-26T12:17:58.417Z,100014.08
2019-04-26T12:20:22.403Z,100019.58
2019-04-26T12:22:52.088Z,100025.20
2019-04-26T12:25:21.220Z,100024.84
2019-04-26T12:27:53.287Z,100029.32
2019-04-26T12:30:24.955Z,100033.80
2019-04-26T12:32:52.172Z,100035.58
2019-04-26T12:35:21.326Z,100038.77
2019-04-26T12:37:54.305Z,100029.05
2019-04-26T12:40:21.312Z,100025.14
2019-04-26T12:42:50.420Z,100029.12
2019-04-26T12:45:56.602Z,100023.81
2019-04-26T12:48:25.860Z,100028.17
2019-04-26T12:50:55.022Z,100024.69
2019-04-26T12:53:26.816Z,100026.88
2019-04-26T12:55:58.295Z,100033.53
2019-04-26T12:58:26.163Z,100030.91
2019-04-26T13:00:55.323Z,100023.91
2019-04-26T13:03:24.870Z,100034.44
2019-04-26T13:05:58.178Z,100027.41
2019-04-26T13:08:26.153Z,100032.38
2019-04-26T13:11:15.034Z,100022.17
2019-04-26T13:14:08.634Z,100026.05
2019-04-26T13:16:57.235Z,100027.83
2019-04-26T13:19:26.590Z,100030.03
2019-04-26T13:21:55.832Z,100033.21
2019-04-26T13:24:25.056Z,100047.05
2019-04-26T13:26:54.202Z,100042.30
2019-04-26T13:29:23.331Z,100044.08
2019-04-26T13:31:52.464Z,100051.17
2019-04-26T13:34:21.598Z,100063.71
2019-04-26T13:36:50.721Z,100064.40
2019-04-26T13:39:22.395Z,100048.53
2019-04-26T13:42:02.173Z,100050.42
2019-04-26T13:44:40.863Z,100042.91
2019-04-26T13:47:25.205Z,100037.56
2019-04-26T13:50:22.425Z,100039.73
2019-04-26T13:52:50.455Z,100046.76
2019-04-26T13:55:19.612Z,100044.56
2019-04-26T13:57:48.743Z,100045.39
2019-04-26T14:00:23.674Z,100038.69
2019-04-26T14:02:52.842Z,100031.05
2019-04-26T14:05:21.985Z,100033.14
2019-04-26T14:07:51.124Z,100049.01
2019-04-26T14:10:20.469Z,100049.88
2019-04-26T14:12:50.160Z,100060.53
2019-04-26T14:15:20.513Z,100073.39
2019-04-26T14:17:49.681Z,100075.31
2019-04-26T14:20:19.213Z,100077.61
2019-04-26T14:23:15.272Z,100081.63
2019-04-26T14:26:01.233Z,100095.88
2019-04-26T14:28:30.788Z,100096.84
2019-04-26T14:31:00.030Z,100083.18
2019-04-26T14:33:30.813Z,100076.12
2019-04-26T14:36:00.065Z,100085.45
2019-04-26T14:38:35.634Z,100093.89
2019-04-26T14:41:03.973Z,100086.84
2019-04-26T14:43:40.733Z,100090.85
2019-04-26T14:46:01.892Z,100078.16
2019-04-26T14:48:36.178Z,100073.45
2019-04-26T14:51:08.162Z,100069.05
2019-04-26T14:53:36.283Z,100064.14
2019-04-26T14:56:03.815Z,100066.73
2019-04-26T14:58:33.715Z,100078.22
2019-04-26T15:01:04.492Z,100076.47
2019-04-26T15:04:02.855Z,100078.67
2019-04-26T15:06:35.163Z,100080.87
2019-04-26T15:09:17.187Z,100091.06
2019-04-26T15:11:37.161Z,100092.03
2019-04-26T15:14:06.303Z,100095.27
2019-04-26T15:16:35.457Z,100103.22
2019-04-26T15:19:06.220Z,100103.64
2019-04-26T15:21:35.469Z,100100.09
2019-04-26T15:24:05.058Z,100104.91
2019-04-26T15:26:34.489Z,100105.78
2019-04-26T15:29:04.535Z,100109.28
2019-04-26T15:31:33.843Z,100109.22
2019-04-26T15:34:03.347Z,100103.88
2019-04-26T15:36:32.631Z,100094.11
2019-04-26T15:39:03.516Z,100094.50
2019-04-26T15:41:52.564Z,100100.23
2019-04-26T15:44:30.265Z,100099.33
2019-04-26T15:47:11.071Z,100095.80
2019-04-26T15:49:59.180Z,100098.45
2019-04-26T15:52:30.087Z,100094.08
2019-04-26T15:55:03.521Z,100105.63
2019-04-26T15:57:32.478Z,100102.10
2019-04-26T16:00:03.948Z,100107.41
2019-04-26T16:02:33.949Z,100110.48
2019-04-26T16:05:03.087Z,100112.72
2019-04-26T16:07:34.504Z,100109.13
2019-04-26T16:10:04.322Z,100111.36
2019-04-26T16:12:33.544Z,100106.51
2019-04-26T16:15:06.566Z,100103.40
2019-04-26T16:17:36.131Z,100104.27
2019-04-26T16:20:04.827Z,100101.63
2019-04-26T16:22:34.063Z,100099.84
2019-04-26T16:25:05.227Z,100102.47
2019-04-26T16:27:34.727Z,100102.88
2019-04-26T16:30:19.443Z,100109.52
2019-04-26T16:33:16.662Z,100106.38
2019-04-26T16:35:45.808Z,100103.25
2019-04-26T16:38:33.178Z,100104.13
2019-04-26T16:41:03.283Z,100109.91
2019-04-26T16:43:37.679Z,100107.29
2019-04-26T16:46:03.623Z,100109.58
2019-04-26T16:48:32.766Z,100108.83
2019-04-26T16:51:08.592Z,100105.72
2019-04-26T16:53:46.332Z,100106.57
2019-04-26T16:56:03.808Z,100105.63
2019-04-26T16:58:38.111Z,100102.10
2019-04-26T17:01:04.705Z,100104.37
2019-04-26T17:03:38.155Z,100095.23
2019-04-26T17:06:10.843Z,100096.20
2019-04-26T17:08:43.346Z,100097.98
2019-04-26T17:11:07.657Z,100105.48
2019-04-26T17:13:48.231Z,100111.73
2019-04-26T17:16:07.671Z,100109.13
2019-04-26T17:18:42.708Z,100107.38
2019-04-26T17:21:12.811Z,100112.69
2019-04-26T17:23:55.158Z,100119.32
2019-04-26T17:26:49.490Z,100121.97
2019-04-26T17:29:18.680Z,100123.78
2019-04-26T17:31:47.851Z,100129.05
2019-04-26T17:34:17.162Z,100135.23
2019-04-26T17:36:50.345Z,100144.10
2019-04-26T17:39:18.410Z,100142.83
2019-04-26T17:41:50.638Z,100147.32
2019-04-26T17:44:20.640Z,100153.50
2019-04-26T17:46:56.213Z,100152.63
2019-04-26T17:49:21.405Z,100152.17
2019-04-26T17:51:51.757Z,100148.70
2019-04-26T17:54:41.694Z,100144.30
2019-04-26T17:56:52.833Z,100146.98
2019-04-26T17:59:33.631Z,100150.95
2019-04-26T18:02:00.981Z,100154.94
2019-04-26T18:04:32.379Z,100164.22
2019-04-26T18:07:02.864Z,100161.14
2019-04-26T18:09:41.374Z,100154.11
2019-04-26T18:12:01.787Z,100151.02
2019-04-26T18:14:30.674Z,100152.34
2019-04-26T18:17:04.686Z,100150.16
2019-04-26T18:20:07.846Z,100140.91
2019-04-26T18:22:49.205Z,100146.66
2019-04-26T18:25:18.339Z,100146.69
2019-04-26T18:27:47.477Z,100136.14
2019-04-26T18:30:17.144Z,100133.06
2019-04-26T18:32:47.640Z,100140.56
2019-04-26T18:35:17.340Z,100144.66
2019-04-26T18:37:46.478Z,100140.75
2019-04-26T18:40:15.622Z,100136.03
2019-04-26T18:42:44.736Z,100124.16
2019-04-26T18:45:14.046Z,100118.43
2019-04-26T18:47:43.713Z,100124.24
2019-04-26T18:50:15.492Z,100125.59
2019-04-26T18:53:13.942Z,100122.52
2019-04-26T18:55:43.376Z,100122.52
2019-04-26T18:58:13.511Z,100125.70
2019-04-26T19:00:43.824Z,100130.17
2019-04-26T19:03:14.168Z,100135.95
2019-04-26T19:05:43.907Z,100157.62
2019-04-26T19:08:14.815Z,100177.93
2019-04-26T19:10:43.995Z,100175.33
2019-04-26T19:13:44.102Z,100182.84
2019-04-26T19:16:38.477Z,100170.92
2019-04-26T19:19:32.688Z,100157.65
2019-04-26T19:22:03.764Z,100171.73
2019-04-26T19:24:32.940Z,100172.16
2019-04-26T19:27:04.131Z,100170.41
2019-04-26T19:29:35.988Z,100177.50
2019-04-26T19:32:04.626Z,100190.43
2019-04-26T19:34:33.710Z,100192.72
2019-04-26T19:37:03.438Z,100198.11
2019-04-26T19:39:35.486Z,100197.28
2019-04-26T19:42:05.987Z,100204.45
2019-04-26T19:44:34.598Z,100212.84
2019-04-26T19:47:43.904Z,100212.89
2019-04-26T19:50:21.885Z,100210.69
2019-04-26T19:53:21.136Z,100216.01
2019-04-26T19:56:24.814Z,100231.08
2019-04-26T19:58:50.565Z,100240.94
2019-04-26T20:01:23.292Z,100236.10
2019-04-26T20:03:55.046Z,100238.75
2019-04-26T20:06:22.066Z,100239.63
2019-04-26T20:08:51.944Z,100235.64
2019-04-26T20:11:21.412Z,100236.48
2019-04-26T20:13:51.902Z,100228.94
2019-04-26T20:16:22.674Z,100224.50
2019-04-26T20:18:52.440Z,100221.38
2019-04-26T20:21:21.835Z,100223.16
2019-04-26T20:23:53.910Z,100222.71
2019-04-26T20:26:22.574Z,100222.28
2019-04-26T20:28:51.880Z,100215.23
2019-04-26T20:31:48.760Z,100213.92
2019-04-26T20:34:18.449Z,100216.23
2019-04-26T20:36:47.994Z,100219.83
2019-04-26T20:39:21.076Z,100212.34
2019-04-26T20:42:00.519Z,100216.39
2019-04-26T20:44:23.774Z,100208.95
2019-04-26T20:46:51.823Z,100201.53
2019-04-26T20:49:21.842Z,100202.43
2019-04-26T20:51:51.878Z,100203.33
2019-04-26T20:54:22.464Z,100198.91
2019-04-26T20:56:55.363Z,100192.30
2019-04-26T20:59:23.647Z,100186.99
2019-04-26T21:02:03.375Z,100188.30
2019-04-26T21:04:35.099Z,100184.77
2019-04-26T21:06:54.767Z,100186.52
2019-04-26T21:09:24.436Z,100184.33
2019-04-26T21:11:53.572Z,100185.66
2019-04-26T21:14:22.772Z,100179.50
2019-04-26T21:16:51.910Z,100174.65
2019-04-26T21:19:21.074Z,100171.14
2019-04-26T21:21:52.217Z,100177.31
2019-04-26T21:24:23.623Z,100169.37
2019-04-26T21:27:07.534Z,100171.61
2019-04-26T21:30:07.720Z,100174.72
2019-04-26T21:33:13.820Z,100168.58
2019-04-26T21:35:49.480Z,100167.28
2019-04-26T21:38:39.321Z,100170.41
2019-04-26T21:41:18.014Z,100173.94
2019-04-26T21:43:47.173Z,100165.18
2019-04-26T21:46:19.119Z,100165.19
2019-04-26T21:48:47.152Z,100166.97
2019-04-26T21:51:16.377Z,100171.83
2019-04-26T21:53:45.523Z,100170.10
2019-04-26T21:56:14.913Z,100173.23
2019-04-26T21:58:46.142Z,100180.31
2019-04-26T22:01:19.383Z,100175.05
2019-04-26T22:03:54.322Z,100176.87
2019-04-26T22:06:24.012Z,100178.21
2019-04-26T22:08:58.858Z,100180.88
2019-04-26T22:11:26.067Z,100182.69
2019-04-26T22:14:03.216Z,100184.91
2019-04-26T22:16:43.211Z,100182.72
2019-04-26T22:19:23.755Z,100177.02
2019-04-26T22:22:11.744Z,100186.70
2019-04-26T22:24:40.941Z,100179.66
2019-04-26T22:27:10.088Z,100167.34
2019-04-26T22:29:39.233Z,100169.56
2019-04-26T22:32:11.420Z,100174.06
2019-04-26T22:34:41.445Z,100176.30
2019-04-26T22:37:12.734Z,100178.10
2019-04-26T22:39:44.199Z,100181.20
2019-04-26T22:42:13.798Z,100183.44
2019-04-26T22:44:48.642Z,100184.33
2019-04-26T22:47:24.079Z,100181.70
2019-04-26T22:49:53.590Z,100177.74
2019-04-26T22:52:23.202Z,100190.56
2019-04-26T22:54:53.872Z,100191.91
2019-04-26T22:57:23.332Z,100191.05
2019-04-26T22:59:53.574Z,100187.52
2019-04-26T23:02:27.546Z,100180.02
2019-04-26T23:04:55.895Z,100178.27
2019-04-26T23:07:26.222Z,100173.00
2019-04-26T23:09:55.686Z,100176.08
2019-04-26T23:12:49.585Z,100172.56
2019-04-26T23:15:49.922Z,100164.64
2019-04-26T23:18:47.039Z,100163.78
2019-04-26T23:21:35.770Z,100169.11
2019-04-26T23:24:05.070Z,100178.91
2019-04-26T23:26:37.539Z,100177.64
2019-04-26T23:29:08.707Z,100181.67
2019-04-26T23:31:37.524Z,100180.34
2019-04-26T23:34:06.713Z,100165.38
2019-04-26T23:36:35.883Z,100168.45
2019-04-26T23:39:07.710Z,100170.20
2019-04-26T23:41:41.280Z,100057.68
2019-04-26T23:44:08.395Z,100171.07
2019-04-26T23:46:37.515Z,100168.88
2019-04-26T23:49:06.663Z,100174.60
2019-04-26T23:51:38.321Z,100163.60
2019-04-26T23:54:06.638Z,100168.45
2019-04-26T23:56:35.802Z,100166.33
2019-04-26T23:59:05.081Z,100167.22
